Latest Weather Observations for Mount Magnet Airport

IDW60801

Issued at 10:53 pm WST Thursday 23 May 2019 (issued every 10 minutes, with the page automatically refreshed every 10 minutes)

About weather observations | Map of weather stations | Latest weather observations for WA | Other Formats
Station Details ID: 007600 Name: MOUNT MAGNET AERO Lat: -28.12 Lon: 117.84 Height: 407.0 m
Data from the previous 72 hours. | See also: Recent months at Mount Magnet Airport
Date/Time
WST
Temp
°C
App
Temp
°C
Dew
Point
°C
Rel
Hum
%
Delta-T
°C
Wind Press
QNH
hPa
Press
MSL
hPa
Rain since
9am
mm
Dir  Spd
km/h
Gust
km/h
Spd
kts
Gust
kts
23/10:30pm 17.3 15.6 7.6 53 5.0 SSE 6 7 3 4 1023.5 1022.5 0.0
23/10:00pm 18.3 16.1 8.0 51 5.4 S 9 13 5 7 1023.7 1022.7 0.0
23/09:30pm 18.8 15.8 7.6 48 5.8 SSW 13 15 7 8 1023.7 1022.7 0.0
23/09:00pm 19.4 16.3 7.2 45 6.3 S 13 17 7 9 1023.7 1022.7 0.0
23/08:30pm 19.9 17.2 7.3 44 6.6 SSW 11 13 6 7 1023.5 1022.5 0.0
23/08:00pm 20.9 17.9 7.5 42 7.0 SSW 13 17 7 9 1023.4 1022.3 0.0
23/07:30pm 21.2 18.5 7.4 41 7.2 SSW 11 13 6 7 1023.4 1022.3 0.0
23/07:00pm 21.7 19.0 7.5 40 7.5 SW 11 11 6 6 1023.2 1022.1 0.0
23/06:30pm 22.4 20.1 7.4 38 7.9 SSW 9 11 5 6 1023.2 1022.1 0.0
23/06:00pm 23.6 21.0 7.7 36 8.5 S 11 13 6 7 1022.5 1021.4 0.0
23/05:30pm 24.6 21.6 7.7 34 9.1 SSW 13 17 7 9 1022.5 1021.4 0.0
23/05:00pm 25.5 22.2 8.1 33 9.5 SSW 15 19 8 10 1022.1 1021.0 0.0
23/04:30pm 26.0 22.3 8.0 32 9.8 S 17 24 9 13 1022.1 1021.0 0.0
23/04:00pm 26.7 24.0 7.2 29 10.5 SSE 11 17 6 9 1022.0 1020.9 0.0
23/03:30pm 26.8 24.8 7.3 29 10.6 SSE 7 15 4 8 1022.0 1020.9 0.0
23/03:00pm 26.5 24.1 7.0 29 10.5 SSE 9 19 5 10 1021.9 1020.8 0.0
23/02:30pm 26.1 23.6 6.7 29 10.4 SSE 9 17 5 9 1022.1 1021.0 0.0
23/02:00pm 26.3 23.4 6.4 28 10.5 S 11 19 6 10 1022.3 1021.2 0.0
23/01:30pm 26.5 24.0 6.5 28 10.7 S 9 15 5 8 1022.3 1021.2 0.0
23/01:00pm 26.0 23.2 7.1 30 10.1 ESE 11 19 6 10 1022.7 1021.6 0.0
23/12:30pm 24.7 22.6 8.2 35 9.0 ENE 9 15 5 8 1023.1 1022.0 0.0
23/12:00pm 23.5 21.4 8.4 38 8.2 S 9 15 5 8 1023.8 1022.8 0.0
23/11:30am 23.0 20.5 8.3 39 7.9 SE 11 17 6 9 1024.5 1023.4 0.0
23/11:00am 21.8 18.9 8.3 42 7.2 S 13 17 7 9 1025.0 1023.9 0.0
23/10:30am 20.8 19.0 9.4 48 6.2 S 9 15 5 8 1024.9 1023.8 0.0
23/10:00am 19.6 18.8 9.5 52 5.4 S 4 7 2 4 1025.2 1024.1 0.0
23/09:30am 18.5 17.5 9.0 54 5.1 S 4 7 2 4 1025.1 1024.0 0.0
23/09:00am 17.2 15.8 8.9 58 4.4 S 6 9 3 5 1025.0 1023.9 0.0
23/08:30am 15.1 14.8 8.6 65 3.4 CALM 0 0 0 0 1024.9 1023.8 0.0
23/08:00am 14.2 12.8 8.8 70 2.8 SSW 6 7 3 4 1024.5 1023.4 0.0
23/07:30am 12.9 11.4 8.6 75 2.2 SW 6 7 3 4 1024.1 1023.1 0.0
23/07:00am 12.2 9.8 8.5 78 1.9 WSW 11 13 6 7 1023.7 1022.7 0.0
23/06:30am 12.0 9.5 8.3 78 1.9 WSW 11 13 6 7 1023.3 1022.2 0.0
23/06:00am 12.0 10.5 8.3 78 1.9 WSW 6 9 3 5 1023.0 1021.9 0.0
23/05:30am 11.8 11.2 7.5 75 2.1 CALM 0 0 0 0 1022.6 1021.5 0.0
23/05:00am 12.8 11.7 8.5 75 2.2 WSW 4 7 2 4 1022.6 1021.5 0.0
23/04:30am 13.3 11.9 8.8 74 2.3 SW 6 7 3 4 1022.3 1021.2 0.0
23/04:00am 14.3 11.6 9.1 71 2.7 WSW 13 15 7 8 1022.5 1021.4 0.0
23/03:30am 14.8 11.7 9.0 68 3.0 WSW 15 19 8 10 1022.5 1021.4 0.0
23/03:00am 14.9 12.1 8.6 66 3.2 WSW 13 17 7 9 1022.5 1021.4 0.0
23/02:30am 15.3 13.3 8.5 64 3.5 WSW 9 13 5 7 1022.4 1021.3 0.0
23/02:00am 16.0 13.2 8.5 61 3.9 WSW 13 15 7 8 1022.6 1021.5 0.0
23/01:30am 16.2 13.6 7.9 58 4.3 WSW 11 13 6 7 1022.5 1021.4 0.0
23/01:00am 16.7 13.6 7.1 53 4.9 WSW 13 17 7 9 1022.6 1021.5 0.0
23/12:30am 17.0 13.7 6.5 50 5.3 WSW 13 17 7 9 1022.7 1021.6 0.0
23/12:00am 17.6 14.6 6.2 47 5.7 WSW 11 13 6 7 1022.7 1021.6 0.0
 
Date/Time
WST
Temp
°C
App
Temp
°C
Dew
Point
°C
Rel
Hum
%
Delta-T
°C
Wind Press
QNH
hPa
Press
MSL
hPa
Rain since
9am
mm
Dir  Spd
km/h
Gust
km/h
Spd
kts
Gust
kts
22/11:30pm 18.2 15.0 5.1 42 6.5 WSW 11 15 6 8 1022.6 1021.5 0.0
22/11:00pm 19.1 15.3 4.1 37 7.3 WSW 13 17 7 9 1022.5 1021.4 0.0
22/10:30pm 20.6 14.6 3.3 32 8.4 W 24 32 13 17 1022.4 1021.3 0.0
22/10:00pm 20.8 16.7 2.1 29 8.8 WNW 13 15 7 8 1021.9 1020.8 0.0
22/09:30pm 20.8 16.3 2.1 29 8.9 WNW 15 17 8 9 1021.8 1020.7 0.0
22/09:00pm 21.7 17.2 1.9 27 9.4 WNW 15 15 8 8 1021.7 1020.6 0.0
22/08:30pm 22.3 18.1 1.9 26 9.7 WNW 13 15 7 8 1021.4 1020.4 0.0
22/08:00pm 22.5 18.4 2.1 26 9.8 WNW 13 15 7 8 1021.2 1020.1 0.0
22/07:30pm 23.2 18.7 2.1 25 10.2 W 15 17 8 9 1021.1 1020.0 0.0
22/07:00pm 24.3 19.8 1.9 23 10.8 WNW 15 15 8 8 1020.7 1019.6 0.0
22/06:30pm 24.9 20.8 2.4 23 11.0 WNW 13 15 7 8 1020.4 1019.3 0.0
22/06:00pm 25.4 21.7 2.2 22 11.3 WNW 11 11 6 6 1020.1 1019.0 0.0
22/05:30pm 27.3 22.7 1.7 19 12.6 WNW 15 19 8 10 1019.9 1018.8 0.0
22/05:00pm 28.7 23.3 1.3 17 13.5 WNW 19 24 10 13 1019.6 1018.5 0.0
22/04:30pm 29.4 23.8 1.0 16 14.0 WNW 20 26 11 14 1019.3 1018.2 0.0
22/04:00pm 30.2 24.5 0.7 15 14.5 NW 20 28 11 15 1019.3 1018.2 0.0
22/03:30pm 29.9 24.9 1.4 16 14.2 NW 17 26 9 14 1019.1 1017.9 0.0
22/03:00pm 29.9 25.2 3.0 18 13.7 N 17 24 9 13 1019.1 1017.9 0.0
22/02:30pm 30.2 25.0 3.3 18 13.9 NW 20 30 11 16 1019.2 1018.0 0.0
22/02:00pm 29.1 24.3 2.4 18 13.4 NNW 17 26 9 14 1019.3 1018.2 0.0
22/01:30pm 28.9 23.6 3.0 19 13.2 NNW 20 28 11 15 1019.6 1018.5 0.0
22/01:00pm 28.4 24.7 4.6 22 12.4 NNW 13 22 7 12 1020.1 1019.0 0.0
22/12:30pm 27.7 25.5 5.3 24 11.8 NW 6 9 3 5 1020.8 1019.7 0.0
22/12:00pm 27.0 24.4 5.9 26 11.1 NE 9 13 5 7 1021.3 1020.3 0.0
22/11:30am 25.6 23.5 5.8 28 10.4 N 6 11 3 6 1021.9 1020.8 0.0
22/11:00am 23.4 21.5 6.7 34 8.7 NW 6 9 3 5 1022.6 1021.5 0.0
22/10:30am 21.6 19.6 7.1 39 7.6 NNW 7 11 4 6 1022.8 1021.7 0.0
22/10:00am 20.0 18.0 6.4 41 6.9 NE 6 9 3 5 1023.1 1022.0 0.0
22/09:30am 18.7 17.3 8.7 52 5.3 E 6 7 3 4 1023.2 1022.1 0.0
22/09:00am 17.2 16.0 9.6 61 4.0 ENE 6 9 3 5 1023.2 1022.1 0.0
22/08:30am 15.4 15.5 10.2 71 2.8 CALM 0 2 0 1 1023.2 1022.1 0.0
22/08:00am 12.6 12.5 9.6 82 1.6 CALM 0 0 0 0 1023.0 1021.9 0.0
22/07:30am 11.3 10.0 9.2 87 1.1 SW 6 9 3 5 1023.0 1021.9 0.0
22/07:00am 10.9 9.5 8.7 86 1.1 SW 6 7 3 4 1022.5 1021.4 0.0
22/06:30am 11.3 9.4 8.9 85 1.2 SW 9 11 5 6 1022.3 1021.2 0.0
22/06:00am 11.6 11.3 8.6 82 1.5 CALM 0 0 0 0 1021.8 1020.7 0.0
22/05:30am 12.3 11.4 9.1 81 1.6 NE 4 7 2 4 1021.7 1020.6 0.0
22/05:00am 13.1 13.0 9.4 78 1.9 CALM 0 0 0 0 1021.5 1020.5 0.0
22/04:30am 13.2 11.8 9.5 78 1.9 ENE 7 9 4 5 1021.5 1020.5 0.0
22/04:00am 13.5 13.5 9.7 78 2.0 CALM 0 0 0 0 1021.7 1020.6 0.0
22/03:30am 13.0 12.9 9.4 79 1.9 CALM 0 0 0 0 1021.5 1020.5 0.0
22/03:00am 13.5 13.4 9.6 77 2.0 CALM 0 0 0 0 1021.8 1020.7 0.0
22/02:30am 13.8 13.7 9.6 76 2.2 CALM 0 0 0 0 1021.9 1020.8 0.0
22/02:00am 14.6 13.4 10.2 75 2.3 SE 7 7 4 4 1022.1 1021.0 0.0
22/01:30am 14.6 13.4 10.2 75 2.3 SE 7 9 4 5 1021.9 1020.8 0.0
22/01:00am 15.0 14.5 10.6 75 2.4 SE 4 6 2 3 1022.2 1021.1 0.0
22/12:30am 15.3 15.1 10.5 73 2.6 SE 2 6 1 3 1022.2 1021.1 0.0
22/12:00am 16.0 15.2 11.0 72 2.7 SE 6 7 3 4 1022.4 1021.3 0.0
 
Date/Time
WST
Temp
°C
App
Temp
°C
Dew
Point
°C
Rel
Hum
%
Delta-T
°C
Wind Press
QNH
hPa
Press
MSL
hPa
Rain since
9am
mm
Dir  Spd
km/h
Gust
km/h
Spd
kts
Gust
kts
21/11:30pm 15.9 15.4 10.9 72 2.7 ESE 4 6 2 3 1022.4 1021.3 0.0
21/11:00pm 16.6 15.9 11.3 71 2.9 E 6 6 3 3 1022.4 1021.3 0.0
21/10:30pm 16.3 15.4 11.2 72 2.8 E 7 7 4 4 1022.6 1021.5 0.0
21/10:00pm 16.9 16.2 11.4 70 3.0 S 6 7 3 4 1022.7 1021.6 0.0
21/09:30pm 18.3 17.5 11.8 66 3.6 S 7 9 4 5 1022.7 1021.6 0.0
21/09:00pm 18.2 18.0 11.7 66 3.6 S 4 7 2 4 1022.8 1021.7 0.0
21/08:30pm 18.9 18.2 11.9 64 3.9 S 7 9 4 5 1022.5 1021.4 0.0
21/08:00pm 19.4 18.3 11.9 62 4.2 S 9 11 5 6 1022.3 1021.2 0.0
21/07:30pm 20.2 18.8 12.2 60 4.6 SSW 11 13 6 7 1022.1 1021.0 0.0
21/07:00pm 20.8 19.7 12.0 57 5.0 SSW 9 13 5 7 1021.9 1020.8 0.0
21/06:30pm 21.6 20.1 11.9 54 5.5 S 11 11 6 6 1021.7 1020.6 0.0
21/06:00pm 22.6 21.9 12.0 51 6.1 SSW 7 11 4 6 1021.3 1020.3 0.0
21/05:30pm 23.2 21.7 11.9 49 6.5 S 11 15 6 8 1021.2 1020.1 0.0
21/05:00pm 23.7 22.6 12.0 48 6.7 S 9 11 5 6 1021.1 1020.0 0.0
21/04:30pm 24.3 23.8 11.9 45 7.2 W 6 9 3 5 1021.1 1020.0 0.0
21/04:00pm 23.7 23.0 12.0 48 6.7 SE 7 11 4 6 1020.8 1019.7 0.0
21/03:30pm 23.8 22.4 12.1 48 6.8 SSE 11 15 6 8 1020.8 1019.7 0.0
21/03:00pm 23.9 22.9 12.2 48 6.8 W 9 15 5 8 1021.0 1019.9 0.0
21/02:30pm 23.6 22.6 12.3 49 6.6 WSW 9 17 5 9 1020.8 1019.7 0.0
21/02:00pm 23.3 22.9 12.3 50 6.4 NW 6 13 3 7 1021.0 1019.9 0.0
21/01:30pm 22.9 22.6 12.8 53 5.9 S 6 11 3 6 1021.2 1020.1 0.0
21/01:00pm 21.9 21.0 12.7 56 5.3 S 9 13 5 7 1021.8 1020.7 0.0
21/12:30pm 21.6 21.9 13.5 60 4.8 W 4 9 2 5 1022.3 1021.2 0.0
21/12:00pm 20.8 20.8 13.7 64 4.2 E 6 9 3 5 1022.8 1021.7 0.0
21/11:30am 20.2 19.6 13.4 65 4.0 NE 9 15 5 8 1023.0 1021.9 0.0
21/11:00am 19.3 18.8 13.7 70 3.3 ESE 9 13 5 7 1023.6 1022.6 0.0
21/10:30am 17.9 16.6 13.6 76 2.5 ESE 13 19 7 10 1023.8 1022.8 0.0
21/10:00am 17.4 16.1 13.7 79 2.1 ESE 13 19 7 10 1024.0 1023.0 0.0
21/09:30am 16.7 15.8 13.8 83 1.7 SE 11 17 6 9 1024.4 1023.3 0.0
21/09:00am 16.0 15.1 13.8 87 1.3 ESE 11 15 6 8 1024.0 1023.0 0.0
21/08:30am 15.5 14.6 13.7 89 1.0 ESE 11 15 6 8 1023.8 1022.8 0.0
21/08:00am 15.4 14.9 13.8 90 0.9 E 9 13 5 7 1023.5 1022.5 0.0
21/07:30am 15.4 14.6 13.9 91 0.9 ESE 11 15 6 8 1023.3 1022.2 0.0
21/07:00am 15.7 14.9 14.1 90 0.9 ESE 11 13 6 7 1022.9 1021.8 0.0
21/06:30am 15.7 15.4 14.4 92 0.8 ESE 9 13 5 7 1022.6 1021.5 0.0
21/06:00am 15.6 15.4 14.8 95 0.5 SE 9 13 5 7 1022.2 1021.1 0.0
21/05:30am 15.4 15.4 15.1 98 0.2 ESE 9 11 5 6 1022.0 1020.9 0.0
21/05:00am 15.2 15.1 15.0 99 0.1 S 9 13 5 7 1021.8 1020.7 0.0
21/04:30am 14.8 14.6 14.6 99 0.1 S 9 13 5 7 1021.5 1020.5 0.0
21/04:00am 14.5 14.5 14.3 99 0.1 S 7 11 4 6 1021.5 1020.5 0.0
21/03:30am 14.4 14.0 14.1 98 0.2 S 9 11 5 6 1021.4 1020.4 0.0
21/03:00am 14.1 13.5 13.6 97 0.3 SSE 9 13 5 7 1021.4 1020.4 0.0
21/02:30am 13.8 11.8 12.7 93 0.6 S 15 17 8 9 1021.3 1020.3 0.0
21/02:00am 14.6 13.9 11.9 84 1.5 SW 7 13 4 7 1021.3 1020.3 0.0
21/01:30am 15.0 14.3 12.0 82 1.7 SW 7 9 4 5 1021.3 1020.3 0.0
21/01:00am 15.3 14.2 11.9 80 1.9 SW 9 11 5 6 1021.3 1020.3 0.0
21/12:30am 15.8 15.2 11.8 77 2.2 SSW 6 7 3 4 1021.2 1020.1 0.0
21/12:00am 16.3 15.1 11.7 74 2.5 SSW 9 11 5 6 1021.3 1020.3 0.0
 
Date/Time
WST
Temp
°C
App
Temp
°C
Dew
Point
°C
Rel
Hum
%
Delta-T
°C
Wind Press
QNH
hPa
Press
MSL
hPa
Rain since
9am
mm
Dir  Spd
km/h
Gust
km/h
Spd
kts
Gust
kts
20/11:30pm 15.8 14.0 9.5 66 3.3 WSW 9 11 5 6 1021.3 1020.3 0.0
20/11:00pm 16.0 14.1 9.2 64 3.6 SW 9 11 5 6 1021.1 1020.0 0.0

Other formats

Comma delimited format used in spreadsheet applications
http://www.bom.gov.au/fwo/IDW60801/IDW60801.94429.axf

JavaScript Object Notation format (JSON) in row-major order
http://www.bom.gov.au/fwo/IDW60801/IDW60801.94429.json

Data quality

Most of these data are generated automatically and are frequently updated. Quality checks on data are not normally performed. It is possible for incorrect values to appear. Refer to information at About Latest Weather Observations and please check the disclaimer before using these data.